Terminal Aerodrome Forecast
Issued by NWS Huntsville, AL

Home | Current Version | Previous Version | Text Only | Print | Product List | Glossary On
Versions: 1 2 3 4 5 6 7 8 9 10 11 12 13 14 15 16 17 18 19 20 21 22 23 24 25 26 27 28 29 30
000
FTUS44 KHUN 040520
TAFMSL
TAF
KMSL 040520Z 0406/0506 VRB03KT P6SM FEW070 FEW250
     FM040800 00000KT 5SM BR SCT250
      TEMPO 0409/0412 1SM BR SCT005
     FM041300 05004KT P6SM SCT040 SCT250
     FM050100 VRB02KT P6SM SCT060=

USA.gov is the U.S. government's official web portal to all federal, state and local government web resources and services.